Time;durP1;ratioP1;P1;durP2;ratioP2;P2;SDS_P1;SDS_P2;PMS_P1;PMS_P2;Temp;Humidity;BMP_temperature;BMP_pressure;BME280_temperature;BME280_humidity;BME280_pressure;Samples;Min_cycle;Max_cycle;Signal;HPM_P1;HPM_P2
2023/08/18 00:00:48;;;;;;;4.63;3.83;;;;;;;;;;5093927;28;20611;-77
2023/08/18 00:03:15;;;;;;;5.10;4.60;;;;;;;;;;5075707;28;20578;-76
2023/08/18 00:05:42;;;;;;;4.70;4.00;;;;;;;;;;5075950;28;20200;-77
2023/08/18 00:08:09;;;;;;;6.57;3.87;;;;;;;;;;5075920;28;20192;-77
2023/08/18 00:10:38;;;;;;;6.27;4.27;;;;;;;;;;5059387;28;20208;-77
2023/08/18 00:13:05;;;;;;;4.73;4.37;;;;;;;;;;5075621;28;20196;-77
2023/08/18 00:15:32;;;;;;;4.20;3.90;;;;;;;;;;5075832;28;20568;-77
2023/08/18 00:17:59;;;;;;;4.17;3.83;;;;;;;;;;5093337;28;20629;-77
2023/08/18 00:20:26;;;;;;;5.47;3.93;;;;;;;;;;5093411;28;20196;-77
2023/08/18 00:22:52;;;;;;;4.43;4.03;;;;;;;;;;5075570;28;20738;-76
2023/08/18 00:25:19;;;;;;;4.47;4.07;;;;;;;;;;5093176;28;20231;-77
2023/08/18 00:27:48;;;;;;;5.47;4.17;;;;;;;;;;5059064;28;20200;-77
2023/08/18 00:30:15;;;;;;;29.77;5.70;;;;;;;;;;5093299;28;20208;-77
2023/08/18 00:32:42;;;;;;;7.60;4.67;;;;;;;;;;5093791;28;20207;-77
2023/08/18 00:35:09;;;;;;;5.30;4.63;;;;;;;;;;5093121;28;20574;-76
2023/08/18 00:37:36;;;;;;;9.57;4.67;;;;;;;;;;5058425;28;20200;-77
2023/08/18 00:40:03;;;;;;;6.93;4.67;;;;;;;;;;5075377;28;20603;-76
2023/08/18 00:42:29;;;;;;;4.10;3.80;;;;;;;;;;5093414;28;20273;-77
2023/08/18 00:44:58;;;;;;;5.87;5.17;;;;;;;;;;5093109;28;20231;-77
2023/08/18 00:47:25;;;;;;;6.27;4.07;;;;;;;;;;5074944;28;20705;-77
2023/08/18 00:49:52;;;;;;;6.83;4.67;;;;;;;;;;5093205;28;20202;-76
2023/08/18 00:52:19;;;;;;;4.43;4.10;;;;;;;;;;5093282;28;20193;-77
2023/08/18 00:54:46;;;;;;;5.00;4.60;;;;;;;;;;5093383;28;20281;-76
2023/08/18 00:57:13;;;;;;;4.50;4.10;;;;;;;;;;5093295;28;20210;-77
2023/08/18 00:59:40;;;;;;;10.20;5.00;;;;;;;;;;5075278;28;20184;-77
2023/08/18 01:02:09;;;;;;;4.43;4.10;;;;;;;;;;5093737;28;20196;-76
2023/08/18 01:04:36;;;;;;;4.80;4.17;;;;;;;;;;5092372;28;20222;-77
2023/08/18 01:07:03;;;;;;;4.87;4.47;;;;;;;;;;5091916;28;20200;-77
2023/08/18 01:09:30;;;;;;;5.80;4.67;;;;;;;;;;5074899;28;20199;-76
2023/08/18 01:12:05;;;;;;;6.13;4.87;;;;;;;;;;5092899;28;20560;-77
2023/08/18 01:14:38;;;;;;;5.77;5.27;;;;;;;;;;5092785;28;20195;-77
2023/08/18 01:17:11;;;;;;;5.07;4.57;;;;;;;;;;5092372;28;20192;-77
2023/08/18 01:19:38;;;;;;;7.03;4.47;;;;;;;;;;5092578;28;20192;-76
2023/08/18 01:22:11;;;;;;;5.87;5.20;;;;;;;;;;5091768;28;20689;-77
2023/08/18 01:24:40;;;;;;;5.33;4.83;;;;;;;;;;5074944;28;20301;-77
2023/08/18 01:27:07;;;;;;;5.43;4.23;;;;;;;;;;5091755;28;20616;-77
2023/08/18 01:29:34;;;;;;;8.20;5.10;;;;;;;;;;5074399;28;20565;-77
2023/08/18 01:32:04;;;;;;;8.17;4.67;;;;;;;;;;5057934;28;20569;-77
2023/08/18 01:34:32;;;;;;;5.40;4.87;;;;;;;;;;5092375;28;20204;-77
2023/08/18 01:37:00;;;;;;;5.27;4.80;;;;;;;;;;5092430;28;20203;-77
2023/08/18 01:39:28;;;;;;;5.97;4.93;;;;;;;;;;5092543;28;20200;-77
2023/08/18 01:41:56;;;;;;;5.67;4.63;;;;;;;;;;5041204;28;20272;-77
2023/08/18 01:44:23;;;;;;;6.40;5.80;;;;;;;;;;5091809;28;20228;-77
2023/08/18 01:46:50;;;;;;;8.43;4.93;;;;;;;;;;5092092;28;20207;-77
2023/08/18 01:49:17;;;;;;;8.37;5.10;;;;;;;;;;5057527;28;20575;-77
2023/08/18 01:51:44;;;;;;;6.10;5.33;;;;;;;;;;5073982;28;20207;-76
2023/08/18 01:54:11;;;;;;;6.43;5.47;;;;;;;;;;5073920;28;20227;-77
2023/08/18 01:56:38;;;;;;;6.00;5.50;;;;;;;;;;5073911;28;20196;-77
2023/08/18 01:59:07;;;;;;;5.67;5.10;;;;;;;;;;5092108;28;20203;-77
2023/08/18 02:01:34;;;;;;;6.40;5.77;;;;;;;;;;5073974;28;20249;-77
2023/08/18 02:04:00;;;;;;;7.10;5.80;;;;;;;;;;5091670;28;20216;-77
2023/08/18 02:06:27;;;;;;;6.00;4.97;;;;;;;;;;5091690;28;20212;-77
2023/08/18 02:08:54;;;;;;;6.67;5.10;;;;;;;;;;5091703;28;20196;-77
2023/08/18 02:11:21;;;;;;;6.30;4.33;;;;;;;;;;5091828;28;20199;-77
2023/08/18 02:13:48;;;;;;;16.13;7.00;;;;;;;;;;5091497;28;20203;-77
2023/08/18 02:16:16;;;;;;;8.63;5.93;;;;;;;;;;5091998;28;20569;-77
2023/08/18 02:18:43;;;;;;;6.07;4.53;;;;;;;;;;5092019;28;20264;-77
2023/08/18 02:21:10;;;;;;;6.83;5.37;;;;;;;;;;5091851;28;20617;-77
2023/08/18 02:23:37;;;;;;;4.97;4.30;;;;;;;;;;5091628;28;20196;-77
2023/08/18 02:26:05;;;;;;;6.00;4.73;;;;;;;;;;5073487;28;20232;-77
2023/08/18 02:28:32;;;;;;;5.93;4.70;;;;;;;;;;5057075;28;20208;-77
2023/08/18 02:31:02;;;;;;;4.87;4.43;;;;;;;;;;5073877;28;20208;-77
2023/08/18 02:33:31;;;;;;;6.63;5.07;;;;;;;;;;5095277;28;20287;-77
2023/08/18 02:35:59;;;;;;;5.73;5.23;;;;;;;;;;5095463;28;20201;-77
2023/08/18 02:38:26;;;;;;;6.10;5.53;;;;;;;;;;5077272;28;20229;-77
2023/08/18 02:40:54;;;;;;;7.70;5.47;;;;;;;;;;5095630;28;20203;-77
2023/08/18 02:43:22;;;;;;;5.77;5.27;;;;;;;;;;5044686;28;20199;-76
2023/08/18 02:45:49;;;;;;;8.73;4.90;;;;;;;;;;5095552;28;20223;-77
2023/08/18 02:48:16;;;;;;;7.87;4.70;;;;;;;;;;5077310;28;20230;-77
2023/08/18 02:50:45;;;;;;;5.23;4.80;;;;;;;;;;5077186;28;20200;-77
2023/08/18 02:53:13;;;;;;;15.50;5.10;;;;;;;;;;5076929;28;20314;-77
2023/08/18 02:55:40;;;;;;;12.27;5.67;;;;;;;;;;5095044;28;20218;-76
2023/08/18 02:58:07;;;;;;;5.63;5.17;;;;;;;;;;5077224;28;20196;-77
2023/08/18 03:00:35;;;;;;;5.97;5.47;;;;;;;;;;5094885;28;20200;-77
2023/08/18 03:03:03;;;;;;;5.40;5.00;;;;;;;;;;5094942;28;20691;-76
2023/08/18 03:05:29;;;;;;;5.70;4.87;;;;;;;;;;5076909;28;20720;-77
2023/08/18 03:07:58;;;;;;;5.60;5.10;;;;;;;;;;5093870;28;20570;-77
2023/08/18 03:10:25;;;;;;;6.93;5.40;;;;;;;;;;5076901;28;20200;-77
2023/08/18 03:12:52;;;;;;;7.90;5.97;;;;;;;;;;5094900;28;20196;-77
2023/08/18 03:15:18;;;;;;;5.60;5.03;;;;;;;;;;5077196;28;20257;-77
2023/08/18 03:17:45;;;;;;;6.70;5.23;;;;;;;;;;5076946;28;20203;-77
2023/08/18 03:20:12;;;;;;;5.83;5.10;;;;;;;;;;5060113;28;20246;-77
2023/08/18 03:22:39;;;;;;;6.23;5.60;;;;;;;;;;5076779;28;20562;-77
2023/08/18 03:25:10;;;;;;;6.00;5.40;;;;;;;;;;5076590;28;20220;-77
2023/08/18 03:27:37;;;;;;;5.80;4.77;;;;;;;;;;5077067;28;20200;-77
2023/08/18 03:30:04;;;;;;;7.37;5.73;;;;;;;;;;5112620;28;20195;-76
2023/08/18 03:32:32;;;;;;;5.60;5.20;;;;;;;;;;5096781;28;20191;-77
2023/08/18 03:34:59;;;;;;;5.83;5.30;;;;;;;;;;5115582;28;20216;-77
2023/08/18 03:37:26;;;;;;;9.63;6.07;;;;;;;;;;5096827;28;20268;-78
2023/08/18 03:39:54;;;;;;;5.50;5.00;;;;;;;;;;5096884;28;20225;-79
2023/08/18 03:42:23;;;;;;;5.90;5.40;;;;;;;;;;5114691;28;20731;-78
2023/08/18 03:44:50;;;;;;;9.43;5.73;;;;;;;;;;5113385;28;20211;-79
2023/08/18 03:47:19;;;;;;;9.77;5.97;;;;;;;;;;5096908;28;20199;-77
2023/08/18 03:49:46;;;;;;;6.77;4.93;;;;;;;;;;5095390;28;20203;-78
2023/08/18 03:52:13;;;;;;;7.90;5.30;;;;;;;;;;5114678;28;20201;-79
2023/08/18 03:54:39;;;;;;;9.77;5.93;;;;;;;;;;5114279;28;20219;-79
2023/08/18 03:57:06;;;;;;;7.27;5.90;;;;;;;;;;5114376;28;20689;-78
2023/08/18 03:59:34;;;;;;;6.77;5.30;;;;;;;;;;5114090;28;20677;-79
2023/08/18 04:02:01;;;;;;;6.70;4.83;;;;;;;;;;5114172;28;20196;-79
2023/08/18 04:04:28;;;;;;;14.33;5.73;;;;;;;;;;5114015;28;20557;-79
2023/08/18 04:06:55;;;;;;;8.17;5.33;;;;;;;;;;5114757;28;20278;-80
2023/08/18 04:09:21;;;;;;;7.87;6.37;;;;;;;;;;5114948;28;20195;-93
2023/08/18 04:11:48;;;;;;;5.87;5.30;;;;;;;;;;5113181;28;20568;-80
2023/08/18 04:14:15;;;;;;;8.10;5.13;;;;;;;;;;5113418;28;20207;-80
2023/08/18 04:16:44;;;;;;;12.47;6.30;;;;;;;;;;5114649;28;20195;-80
2023/08/18 04:19:11;;;;;;;12.57;7.23;;;;;;;;;;5113754;28;20587;-80
2023/08/18 04:21:39;;;;;;;5.60;4.90;;;;;;;;;;5114701;28;20235;-80
2023/08/18 04:24:06;;;;;;;8.27;5.00;;;;;;;;;;5114206;28;20199;-80
2023/08/18 04:26:35;;;;;;;5.43;5.03;;;;;;;;;;5114023;28;20638;-80
2023/08/18 04:29:02;;;;;;;6.07;5.30;;;;;;;;;;5113605;28;20221;-80
2023/08/18 04:31:29;;;;;;;10.57;5.40;;;;;;;;;;5113583;28;20192;-80
2023/08/18 04:33:57;;;;;;;10.30;5.80;;;;;;;;;;5113587;28;20195;-80
2023/08/18 04:36:24;;;;;;;14.90;6.43;;;;;;;;;;5112354;28;20199;-80
2023/08/18 04:38:51;;;;;;;5.97;4.80;;;;;;;;;;5112315;28;20581;-80
2023/08/18 04:41:18;;;;;;;7.90;4.50;;;;;;;;;;5112245;28;20253;-80
2023/08/18 04:43:44;;;;;;;4.60;4.20;;;;;;;;;;5100243;28;20578;-80
2023/08/18 04:46:11;;;;;;;11.17;4.73;;;;;;;;;;5091771;28;20215;-80
2023/08/18 04:48:38;;;;;;;19.80;5.00;;;;;;;;;;5092123;28;20196;-80
2023/08/18 04:51:06;;;;;;;7.37;4.73;;;;;;;;;;5105479;28;20202;-80
2023/08/18 04:53:33;;;;;;;10.27;5.13;;;;;;;;;;5104423;28;20697;-80
2023/08/18 04:56:03;;;;;;;8.33;5.57;;;;;;;;;;5091428;28;20201;-80
2023/08/18 04:58:30;;;;;;;5.70;4.47;;;;;;;;;;5105831;28;20195;-80
2023/08/18 05:00:59;;;;;;;14.40;5.00;;;;;;;;;;5112521;28;20199;-80
2023/08/18 05:03:26;;;;;;;7.20;4.77;;;;;;;;;;5111928;28;20195;-80
2023/08/18 05:06:00;;;;;;;6.23;4.30;;;;;;;;;;5105503;28;20306;-80
2023/08/18 05:08:30;;;;;;;8.17;4.23;;;;;;;;;;5107357;28;20675;-80
2023/08/18 05:10:57;;;;;;;7.67;5.40;;;;;;;;;;5105052;28;20192;-80
2023/08/18 05:13:24;;;;;;;4.40;4.10;;;;;;;;;;5094007;28;20291;-80
2023/08/18 05:15:52;;;;;;;7.37;4.50;;;;;;;;;;5101167;28;20273;-80
2023/08/18 05:18:20;;;;;;;6.73;4.63;;;;;;;;;;5109280;28;20613;-79
2023/08/18 05:20:47;;;;;;;5.53;4.37;;;;;;;;;;5111533;28;20199;-80
2023/08/18 05:23:16;;;;;;;9.63;5.90;;;;;;;;;;5091601;28;20199;-80
2023/08/18 05:25:44;;;;;;;5.93;4.30;;;;;;;;;;5106453;28;20222;-80
2023/08/18 05:28:11;;;;;;;7.00;4.70;;;;;;;;;;5111377;28;20206;-80
2023/08/18 05:30:38;;;;;;;6.13;4.03;;;;;;;;;;5110709;28;20221;-80
2023/08/18 05:33:05;;;;;;;5.40;4.10;;;;;;;;;;5100030;28;20191;-79
2023/08/18 05:35:32;;;;;;;12.47;4.80;;;;;;;;;;5100573;28;20659;-80
2023/08/18 05:37:59;;;;;;;16.93;5.07;;;;;;;;;;5111518;28;20619;-80
2023/08/18 05:40:26;;;;;;;10.53;4.93;;;;;;;;;;5111340;28;20187;-80
2023/08/18 05:42:54;;;;;;;8.97;4.80;;;;;;;;;;5102709;28;20203;-80
2023/08/18 05:45:21;;;;;;;5.87;4.40;;;;;;;;;;5104547;28;20303;-80
2023/08/18 05:47:48;;;;;;;7.03;4.30;;;;;;;;;;5100761;28;20199;-80
2023/08/18 05:50:15;;;;;;;6.67;3.57;;;;;;;;;;5094832;28;20631;-80
2023/08/18 05:52:41;;;;;;;8.10;4.80;;;;;;;;;;5090648;28;20291;-81
2023/08/18 05:55:09;;;;;;;8.10;4.77;;;;;;;;;;5108017;28;20191;-79
2023/08/18 05:57:38;;;;;;;12.87;4.97;;;;;;;;;;5100447;28;20542;-80
2023/08/18 06:00:10;;;;;;;13.47;5.33;;;;;;;;;;5106492;28;20545;-80
2023/08/18 06:02:36;;;;;;;6.60;4.40;;;;;;;;;;5085844;28;20581;-80
2023/08/18 06:05:04;;;;;;;4.53;4.13;;;;;;;;;;5095728;28;20596;-79
2023/08/18 06:07:31;;;;;;;9.10;4.43;;;;;;;;;;5116059;28;20662;-80
2023/08/18 06:09:58;;;;;;;5.63;4.47;;;;;;;;;;5105420;28;20620;-80
2023/08/18 06:12:24;;;;;;;15.40;4.70;;;;;;;;;;5105984;28;20245;-80
2023/08/18 06:14:51;;;;;;;5.73;4.30;;;;;;;;;;5097791;28;20203;-80
2023/08/18 06:17:19;;;;;;;8.23;4.60;;;;;;;;;;5109862;28;20191;-80
2023/08/18 06:19:47;;;;;;;6.90;3.93;;;;;;;;;;5117687;28;20202;-79
2023/08/18 06:22:13;;;;;;;8.73;4.90;;;;;;;;;;5104922;28;20188;-80
2023/08/18 06:24:40;;;;;;;11.87;4.53;;;;;;;;;;5103998;28;20201;-80
2023/08/18 06:27:07;;;;;;;4.37;3.90;;;;;;;;;;5117460;28;20661;-80
2023/08/18 06:29:34;;;;;;;5.60;4.43;;;;;;;;;;5103484;28;20547;-80
2023/08/18 06:32:00;;;;;;;9.47;4.07;;;;;;;;;;5105162;28;20199;-80
2023/08/18 06:34:29;;;;;;;4.63;4.00;;;;;;;;;;5117994;28;20203;-79
2023/08/18 06:36:56;;;;;;;7.90;4.20;;;;;;;;;;5117752;28;20199;-80
2023/08/18 06:39:23;;;;;;;6.43;4.17;;;;;;;;;;5109366;28;20200;-80
2023/08/18 06:41:49;;;;;;;4.43;4.13;;;;;;;;;;5110625;28;20192;-79
2023/08/18 06:44:16;;;;;;;9.07;3.70;;;;;;;;;;5102753;28;20194;-80
2023/08/18 06:46:43;;;;;;;4.33;3.93;;;;;;;;;;5117445;28;20226;-79
2023/08/18 06:49:10;;;;;;;6.20;3.77;;;;;;;;;;5108994;28;20199;-80
2023/08/18 06:51:39;;;;;;;5.73;3.93;;;;;;;;;;5110395;28;20199;-80
2023/08/18 06:54:06;;;;;;;4.20;3.80;;;;;;;;;;5106995;28;20244;-82
2023/08/18 06:56:33;;;;;;;9.20;4.27;;;;;;;;;;5102364;28;20223;-79
2023/08/18 06:58:59;;;;;;;4.30;3.90;;;;;;;;;;5104697;28;20202;-80
2023/08/18 07:01:27;;;;;;;4.30;3.63;;;;;;;;;;5118118;28;20514;-80
2023/08/18 07:03:54;;;;;;;5.23;3.97;;;;;;;;;;5108657;28;20196;-80
2023/08/18 07:06:21;;;;;;;7.87;3.90;;;;;;;;;;5112912;28;20222;-80
2023/08/18 07:08:49;;;;;;;8.47;4.03;;;;;;;;;;5108658;28;20203;-80
2023/08/18 07:11:16;;;;;;;7.53;4.72;;;;;;;;;;5111159;28;20637;-80
2023/08/18 07:13:43;;;;;;;6.43;4.10;;;;;;;;;;5105851;28;20204;-80
2023/08/18 07:16:10;;;;;;;6.03;4.20;;;;;;;;;;5103371;28;20229;-80
2023/08/18 07:18:37;;;;;;;8.93;4.60;;;;;;;;;;5104883;28;20659;-80
2023/08/18 07:21:04;;;;;;;6.67;4.53;;;;;;;;;;5093898;28;20701;-80
2023/08/18 07:23:30;;;;;;;6.50;4.43;;;;;;;;;;5104358;28;20201;-80
2023/08/18 07:25:59;;;;;;;4.30;3.90;;;;;;;;;;5100122;28;20215;-80
2023/08/18 07:28:26;;;;;;;14.17;4.93;;;;;;;;;;5102648;28;20196;-80
2023/08/18 07:30:53;;;;;;;18.67;5.83;;;;;;;;;;5106781;28;20223;-80
2023/08/18 07:33:20;;;;;;;15.20;5.47;;;;;;;;;;5093665;28;20200;-80
2023/08/18 07:35:47;;;;;;;10.30;4.57;;;;;;;;;;5106800;28;20196;-80
2023/08/18 07:38:14;;;;;;;7.25;4.00;;;;;;;;;;5104375;28;20195;-81
2023/08/18 07:40:42;;;;;;;5.40;4.15;;;;;;;;;;5096492;28;20196;-80
2023/08/18 07:43:10;;;;;;;7.45;4.20;;;;;;;;;;5104642;28;20195;-80
2023/08/18 07:45:37;;;;;;;5.32;3.75;;;;;;;;;;5108535;28;20207;-79
2023/08/18 07:48:05;;;;;;;4.40;4.00;;;;;;;;;;5103768;28;20238;-80
2023/08/18 07:50:32;;;;;;;4.93;4.50;;;;;;;;;;5097176;28;20249;-80
2023/08/18 07:52:59;;;;;;;5.30;4.10;;;;;;;;;;5101114;28;20685;-80
2023/08/18 07:55:26;;;;;;;4.95;4.30;;;;;;;;;;5098276;28;20680;-80
2023/08/18 07:57:52;;;;;;;5.53;4.03;;;;;;;;;;5113676;28;20202;-80
2023/08/18 08:00:21;;;;;;;5.90;4.38;;;;;;;;;;5099912;28;20192;-80
2023/08/18 08:02:48;;;;;;;4.10;3.67;;;;;;;;;;5113076;28;20695;-80
2023/08/18 08:05:17;;;;;;;7.45;4.78;;;;;;;;;;5113585;28;20188;-80
2023/08/18 08:07:44;;;;;;;20.33;5.30;;;;;;;;;;5112608;28;20218;-81
2023/08/18 08:10:11;;;;;;;6.40;5.25;;;;;;;;;;5093144;28;20203;-81
2023/08/18 08:12:38;;;;;;;11.93;4.68;;;;;;;;;;5092987;28;20585;-80
2023/08/18 08:15:07;;;;;;;10.68;4.97;;;;;;;;;;5104263;28;20207;-81
2023/08/18 08:17:35;;;;;;;7.70;4.20;;;;;;;;;;5108016;28;20222;-80
2023/08/18 08:20:05;;;;;;;9.15;4.72;;;;;;;;;;5105474;28;20200;-80
2023/08/18 08:22:32;;;;;;;6.93;4.95;;;;;;;;;;5105637;28;20610;-80
2023/08/18 08:24:59;;;;;;;4.80;4.40;;;;;;;;;;5104113;28;20246;-81
2023/08/18 08:27:26;;;;;;;6.07;4.45;;;;;;;;;;5106454;28;20688;-81
2023/08/18 08:29:52;;;;;;;4.55;4.15;;;;;;;;;;5113213;28;20618;-81
2023/08/18 08:32:19;;;;;;;5.20;4.70;;;;;;;;;;5112749;28;20195;-80
2023/08/18 08:34:50;;;;;;;4.68;4.28;;;;;;;;;;5112742;28;20202;-81
2023/08/18 08:37:18;;;;;;;5.05;4.65;;;;;;;;;;5095550;28;20207;-80
2023/08/18 08:39:45;;;;;;;5.45;4.95;;;;;;;;;;5101069;28;20196;-80
2023/08/18 08:42:11;;;;;;;11.65;5.30;;;;;;;;;;5112703;28;20600;-80
2023/08/18 08:44:40;;;;;;;5.10;4.68;;;;;;;;;;5104139;28;20214;-80
2023/08/18 08:47:07;;;;;;;8.45;5.13;;;;;;;;;;5091758;28;20216;-81
2023/08/18 08:49:35;;;;;;;9.68;5.03;;;;;;;;;;5104098;28;20207;-80
2023/08/18 08:52:07;;;;;;;7.13;4.25;;;;;;;;;;5096732;28;20209;-81
2023/08/18 08:54:38;;;;;;;15.50;4.72;;;;;;;;;;5099725;28;20242;-80
2023/08/18 08:57:06;;;;;;;20.25;5.45;;;;;;;;;;5098725;28;20202;-80
2023/08/18 08:59:32;;;;;;;6.78;4.70;;;;;;;;;;5112085;28;20615;-81
2023/08/18 09:01:59;;;;;;;6.75;5.22;;;;;;;;;;5112321;28;20253;-80
2023/08/18 09:04:27;;;;;;;8.00;6.50;;;;;;;;;;5111677;28;20202;-81
2023/08/18 09:06:54;;;;;;;8.98;4.20;;;;;;;;;;5098291;28;20222;-81
2023/08/18 09:09:22;;;;;;;8.98;4.38;;;;;;;;;;5111858;28;20685;-80
2023/08/18 09:11:49;;;;;;;5.03;4.57;;;;;;;;;;5105775;28;20200;-81
2023/08/18 09:14:17;;;;;;;5.00;4.60;;;;;;;;;;5105769;28;20203;-81
2023/08/18 09:16:45;;;;;;;9.15;4.97;;;;;;;;;;5104938;28;20203;-81
2023/08/18 09:19:13;;;;;;;7.85;4.55;;;;;;;;;;5105226;28;20206;-81
2023/08/18 09:21:39;;;;;;;6.07;4.20;;;;;;;;;;5091944;28;20203;-80
2023/08/18 09:24:07;;;;;;;4.43;4.05;;;;;;;;;;5093390;28;20286;-81
2023/08/18 09:26:36;;;;;;;5.70;5.07;;;;;;;;;;5103071;28;20259;-81
2023/08/18 09:29:03;;;;;;;4.53;4.05;;;;;;;;;;5091557;28;20204;-81
2023/08/18 09:31:30;;;;;;;5.32;3.95;;;;;;;;;;5099918;28;20225;-80
2023/08/18 09:33:58;;;;;;;9.18;4.30;;;;;;;;;;5096647;28;20226;-81
2023/08/18 09:36:26;;;;;;;12.93;5.00;;;;;;;;;;5101050;28;20600;-80
2023/08/18 09:38:53;;;;;;;6.82;4.90;;;;;;;;;;5091438;28;20208;-81
2023/08/18 09:41:20;;;;;;;5.80;5.07;;;;;;;;;;5101285;28;20206;-80
2023/08/18 09:43:49;;;;;;;5.78;4.32;;;;;;;;;;5097319;28;20195;-80
2023/08/18 09:46:17;;;;;;;5.88;4.13;;;;;;;;;;5111720;28;20596;-80
2023/08/18 09:48:46;;;;;;;6.28;4.22;;;;;;;;;;5095321;28;20192;-80
2023/08/18 09:51:13;;;;;;;5.00;4.60;;;;;;;;;;5090955;28;20207;-81
2023/08/18 09:53:49;;;;;;;6.68;4.50;;;;;;;;;;5110550;28;20223;-80
2023/08/18 09:56:18;;;;;;;4.47;4.05;;;;;;;;;;5100055;28;20737;-80
2023/08/18 09:58:50;;;;;;;9.23;4.25;;;;;;;;;;5098798;28;20203;-81
2023/08/18 10:01:18;;;;;;;9.90;4.47;;;;;;;;;;5097709;28;20200;-80
2023/08/18 10:03:47;;;;;;;6.03;4.40;;;;;;;;;;5111303;28;20192;-80
2023/08/18 10:06:14;;;;;;;4.82;4.53;;;;;;;;;;5096962;28;20224;-81
2023/08/18 10:08:41;;;;;;;4.10;3.83;;;;;;;;;;5111379;28;20260;-80
2023/08/18 10:11:09;;;;;;;4.53;4.20;;;;;;;;;;5095848;28;20308;-80
2023/08/18 10:13:37;;;;;;;6.13;3.95;;;;;;;;;;5102957;28;20235;-80
2023/08/18 10:16:06;;;;;;;9.95;5.13;;;;;;;;;;5104341;28;20211;-80
2023/08/18 10:18:34;;;;;;;6.75;4.00;;;;;;;;;;5090784;28;20200;-79
2023/08/18 10:21:01;;;;;;;6.72;4.53;;;;;;;;;;5104173;28;20188;-80
2023/08/18 10:23:31;;;;;;;5.15;4.40;;;;;;;;;;5100931;28;20739;-80
2023/08/18 10:25:58;;;;;;;6.57;3.80;;;;;;;;;;5097401;28;20188;-80
2023/08/18 10:28:30;;;;;;;4.50;4.10;;;;;;;;;;5110698;28;20272;-79
2023/08/18 10:31:03;;;;;;;6.32;4.80;;;;;;;;;;5096494;28;20196;-79
2023/08/18 10:33:35;;;;;;;6.43;4.45;;;;;;;;;;5110631;28;20199;-79
2023/08/18 10:36:04;;;;;;;4.20;3.83;;;;;;;;;;5110834;28;20248;-79
2023/08/18 10:38:31;;;;;;;5.43;4.60;;;;;;;;;;5110729;28;20196;-80
2023/08/18 10:40:58;;;;;;;4.40;4.10;;;;;;;;;;5097828;28;20203;-79
2023/08/18 10:43:27;;;;;;;4.88;3.85;;;;;;;;;;5097618;28;20193;-79
2023/08/18 10:45:58;;;;;;;6.40;4.40;;;;;;;;;;5090378;28;20196;-79
2023/08/18 10:48:32;;;;;;;8.23;4.43;;;;;;;;;;5091612;28;20266;-80
2023/08/18 10:50:59;;;;;;;4.20;3.88;;;;;;;;;;5103669;28;20207;-79
2023/08/18 10:53:27;;;;;;;8.50;5.10;;;;;;;;;;5106328;28;21058;-80
2023/08/18 10:55:54;;;;;;;7.22;4.30;;;;;;;;;;5104765;28;20215;-80
2023/08/18 10:58:21;;;;;;;8.75;4.35;;;;;;;;;;5111379;28;20274;-79
2023/08/18 11:00:50;;;;;;;6.18;5.35;;;;;;;;;;5115030;28;20195;-79
2023/08/18 11:03:17;;;;;;;5.85;4.13;;;;;;;;;;5096736;28;20224;-80
2023/08/18 11:05:46;;;;;;;8.20;4.28;;;;;;;;;;5102713;28;20195;-79
2023/08/18 11:08:13;;;;;;;4.80;4.40;;;;;;;;;;5100711;28;20219;-80
2023/08/18 11:10:42;;;;;;;9.60;4.45;;;;;;;;;;5103444;28;20254;-79
2023/08/18 11:13:13;;;;;;;7.63;4.60;;;;;;;;;;5107624;28;20199;-79
2023/08/18 11:15:40;;;;;;;8.00;4.45;;;;;;;;;;5107077;28;20203;-80
2023/08/18 11:18:07;;;;;;;5.38;4.03;;;;;;;;;;5099323;28;20196;-79
2023/08/18 11:20:34;;;;;;;5.22;4.72;;;;;;;;;;5101910;28;20196;-79
2023/08/18 11:23:03;;;;;;;4.97;4.47;;;;;;;;;;5113175;28;20278;-79
2023/08/18 11:25:30;;;;;;;4.57;4.28;;;;;;;;;;5100482;28;20631;-79
2023/08/18 11:27:57;;;;;;;5.10;4.30;;;;;;;;;;5101228;28;20219;-80
2023/08/18 11:30:24;;;;;;;7.15;5.05;;;;;;;;;;5100172;28;20265;-80
2023/08/18 11:32:53;;;;;;;11.52;8.27;;;;;;;;;;5113234;28;20199;-80
2023/08/18 11:35:20;;;;;;;10.57;8.23;;;;;;;;;;5113841;28;20203;-80
2023/08/18 11:37:51;;;;;;;32.20;17.83;;;;;;;;;;5106280;28;20204;-79
2023/08/18 11:40:19;;;;;;;31.00;16.85;;;;;;;;;;5095563;28;20749;-80
2023/08/18 11:42:48;;;;;;;27.55;14.82;;;;;;;;;;5104682;28;20221;-79
2023/08/18 11:45:16;;;;;;;28.35;15.20;;;;;;;;;;5110492;28;20221;-80
2023/08/18 11:47:44;;;;;;;9.68;5.70;;;;;;;;;;5113623;28;20219;-80
2023/08/18 11:50:13;;;;;;;33.90;20.80;;;;;;;;;;5099972;28;20198;-80
2023/08/18 11:52:43;;;;;;;36.20;20.30;;;;;;;;;;5104194;28;20281;-79
2023/08/18 11:55:10;;;;;;;24.35;12.43;;;;;;;;;;5108099;28;20226;-79
2023/08/18 11:57:44;;;;;;;12.98;7.88;;;;;;;;;;5105025;28;20202;-79
2023/08/18 12:00:13;;;;;;;9.77;6.30;;;;;;;;;;5097991;28;20551;-79
2023/08/18 12:02:43;;;;;;;11.27;6.38;;;;;;;;;;5113702;28;20199;-81
2023/08/18 12:05:21;;;;;;;19.30;10.75;;;;;;;;;;5113163;28;20264;-79
2023/08/18 12:07:48;;;;;;;13.25;9.18;;;;;;;;;;5113111;28;20276;-80
2023/08/18 12:10:15;;;;;;;5.22;4.72;;;;;;;;;;5113578;28;20195;-80
2023/08/18 12:12:43;;;;;;;7.38;4.78;;;;;;;;;;5110886;28;20195;-79
2023/08/18 12:15:11;;;;;;;8.80;4.55;;;;;;;;;;5093096;28;20223;-79
2023/08/18 12:17:38;;;;;;;5.57;4.45;;;;;;;;;;5094411;28;20200;-80
2023/08/18 12:20:07;;;;;;;5.88;4.53;;;;;;;;;;5103960;28;20196;-79
2023/08/18 12:22:34;;;;;;;4.72;4.35;;;;;;;;;;5110123;28;20720;-80
2023/08/18 12:25:02;;;;;;;6.35;4.47;;;;;;;;;;5105218;28;20202;-79
2023/08/18 12:27:29;;;;;;;7.35;5.55;;;;;;;;;;5105388;28;20605;-80
2023/08/18 12:29:58;;;;;;;6.60;4.63;;;;;;;;;;5101621;28;20225;-79
2023/08/18 12:32:24;;;;;;;4.80;4.30;;;;;;;;;;5102442;28;20195;-80
2023/08/18 12:34:51;;;;;;;4.32;3.92;;;;;;;;;;5102501;28;20292;-79
2023/08/18 12:37:19;;;;;;;5.53;5.03;;;;;;;;;;5094972;28;20196;-80
2023/08/18 12:39:47;;;;;;;5.18;4.35;;;;;;;;;;5112729;28;20199;-80
2023/08/18 12:42:13;;;;;;;4.72;4.32;;;;;;;;;;5109589;28;20210;-80
2023/08/18 12:44:40;;;;;;;6.03;4.72;;;;;;;;;;5091964;28;20206;-79
2023/08/18 12:47:08;;;;;;;5.20;4.40;;;;;;;;;;5105629;28;20197;-80
2023/08/18 12:49:36;;;;;;;5.03;4.57;;;;;;;;;;5104135;28;20596;-80
2023/08/18 12:52:03;;;;;;;8.90;7.22;;;;;;;;;;5109589;28;20609;-80
2023/08/18 12:54:29;;;;;;;11.13;5.55;;;;;;;;;;5103717;28;20223;-80
2023/08/18 12:56:57;;;;;;;6.93;6.15;;;;;;;;;;5098958;28;20191;-79
2023/08/18 12:59:24;;;;;;;6.00;5.40;;;;;;;;;;5112605;28;20199;-79
2023/08/18 13:01:51;;;;;;;6.57;5.70;;;;;;;;;;5092296;28;20211;-79
2023/08/18 13:04:19;;;;;;;7.32;5.50;;;;;;;;;;5091740;28;20203;-79
2023/08/18 13:06:46;;;;;;;5.80;5.28;;;;;;;;;;5109615;28;20188;-79
2023/08/18 13:09:13;;;;;;;5.70;5.20;;;;;;;;;;5099586;28;20629;-80
2023/08/18 13:11:39;;;;;;;7.25;6.40;;;;;;;;;;5112332;28;20206;-79
2023/08/18 13:14:06;;;;;;;9.57;5.78;;;;;;;;;;5111918;28;20202;-80
2023/08/18 13:16:33;;;;;;;5.75;5.28;;;;;;;;;;5111041;28;20726;-79
2023/08/18 13:19:00;;;;;;;6.75;5.65;;;;;;;;;;5112321;28;20210;-80
2023/08/18 13:21:30;;;;;;;7.40;5.60;;;;;;;;;;5106294;28;20197;-79
2023/08/18 13:23:57;;;;;;;7.45;5.57;;;;;;;;;;5091326;28;20780;-79
2023/08/18 13:26:23;;;;;;;8.18;5.97;;;;;;;;;;5110407;28;20202;-79
2023/08/18 13:28:50;;;;;;;6.97;5.55;;;;;;;;;;5110727;28;20591;-79
2023/08/18 13:31:17;;;;;;;7.63;5.88;;;;;;;;;;5096795;28;20661;-79
2023/08/18 13:33:44;;;;;;;8.60;5.65;;;;;;;;;;5098011;28;20207;-79
2023/08/18 13:36:11;;;;;;;4.72;4.32;;;;;;;;;;5099390;28;20192;-79
2023/08/18 13:38:39;;;;;;;5.97;5.35;;;;;;;;;;5110092;28;20214;-79
2023/08/18 13:41:06;;;;;;;12.80;9.55;;;;;;;;;;5100106;28;20195;-81
2023/08/18 13:43:33;;;;;;;9.23;8.32;;;;;;;;;;5098881;28;20197;-79
2023/08/18 13:45:59;;;;;;;9.35;8.45;;;;;;;;;;5104687;28;20199;-79
2023/08/18 13:48:26;;;;;;;7.35;6.63;;;;;;;;;;5106596;28;20227;-80
2023/08/18 13:50:55;;;;;;;7.18;6.57;;;;;;;;;;5102810;28;20196;-79
2023/08/18 13:53:22;;;;;;;6.78;6.10;;;;;;;;;;5093600;28;20235;-79
2023/08/18 13:55:50;;;;;;;7.22;6.53;;;;;;;;;;5111448;28;20203;-79
2023/08/18 13:58:17;;;;;;;8.13;6.57;;;;;;;;;;5107397;28;20196;-79
2023/08/18 14:00:44;;;;;;;7.72;5.93;;;;;;;;;;5091226;28;20543;-79
2023/08/18 14:03:11;;;;;;;7.10;6.38;;;;;;;;;;5090865;28;20275;-80
2023/08/18 14:05:42;;;;;;;6.18;5.57;;;;;;;;;;5099140;28;20683;-79
2023/08/18 14:08:09;;;;;;;5.32;4.85;;;;;;;;;;5093325;28;20293;-79
2023/08/18 14:10:36;;;;;;;8.20;4.85;;;;;;;;;;5090926;28;20200;-79
2023/08/18 14:13:05;;;;;;;6.00;4.68;;;;;;;;;;5109150;28;20570;-79
2023/08/18 14:15:32;;;;;;;6.00;4.78;;;;;;;;;;5111451;28;20196;-79
2023/08/18 14:17:59;;;;;;;6.63;4.82;;;;;;;;;;5105313;28;20243;-79
2023/08/18 14:20:26;;;;;;;6.30;4.43;;;;;;;;;;5099455;28;20203;-79
2023/08/18 14:22:54;;;;;;;5.30;4.80;;;;;;;;;;5090966;28;20200;-79
2023/08/18 14:25:21;;;;;;;4.53;4.22;;;;;;;;;;5108751;28;20217;-79
2023/08/18 14:27:48;;;;;;;7.40;4.15;;;;;;;;;;5111384;28;20195;-80
2023/08/18 14:30:17;;;;;;;9.85;4.95;;;;;;;;;;5095272;28;20285;-79
2023/08/18 14:32:44;;;;;;;5.80;4.38;;;;;;;;;;5095054;28;20200;-79
2023/08/18 14:35:11;;;;;;;4.55;4.05;;;;;;;;;;5095815;28;20191;-80
2023/08/18 14:37:39;;;;;;;6.45;4.18;;;;;;;;;;5095651;28;20684;-79
2023/08/18 14:40:09;;;;;;;4.28;3.88;;;;;;;;;;5094097;28;20200;-80
2023/08/18 14:42:37;;;;;;;9.32;4.90;;;;;;;;;;5097968;28;20198;-79